Time;durP1;ratioP1;P1;durP2;ratioP2;P2;SDS_P1;SDS_P2;PMS_P1;PMS_P2;Temp;Humidity;BMP_temperature;BMP_pressure;BME280_temperature;BME280_humidity;BME280_pressure;Samples;Min_cycle;Max_cycle;Signal;HPM_P1;HPM_P2
2021/09/07 00:00:19;;;;;;;6.47;4.70;;;;;;;21.15;65.79;100880.72;5041529;28;20036;-76
2021/09/07 00:02:44;;;;;;;7.25;5.30;;;;;;;21.15;65.80;100885.56;5042441;28;20436;-76
2021/09/07 00:05:10;;;;;;;6.03;4.75;;;;;;;21.13;65.67;100874.59;5040933;28;20525;-76
2021/09/07 00:07:36;;;;;;;8.02;5.10;;;;;;;21.12;65.60;100884.25;5015618;28;20485;-76
2021/09/07 00:10:02;;;;;;;7.38;4.90;;;;;;;21.08;65.54;100877.66;5007029;28;20079;-76
2021/09/07 00:12:27;;;;;;;6.10;5.03;;;;;;;21.07;65.63;100873.22;5018505;28;20041;-76
2021/09/07 00:14:53;;;;;;;6.43;4.78;;;;;;;21.03;65.70;100869.44;4998634;28;20087;-76
2021/09/07 00:17:18;;;;;;;7.32;4.70;;;;;;;21.04;65.88;100870.28;5002486;28;20029;-76
2021/09/07 00:19:44;;;;;;;8.30;5.10;;;;;;;21.03;65.50;100871.44;4995148;28;20048;-76
2021/09/07 00:22:09;;;;;;;7.15;4.70;;;;;;;21.00;65.87;100866.50;5027974;28;20029;-76
2021/09/07 00:24:35;;;;;;;5.20;4.70;;;;;;;20.95;65.60;100874.06;5023827;28;20030;-76
2021/09/07 00:27:00;;;;;;;6.25;5.13;;;;;;;20.97;65.55;100868.03;5037602;28;20032;-76
2021/09/07 00:29:26;;;;;;;6.63;4.60;;;;;;;20.92;65.98;100871.09;5035383;28;20489;-76
2021/09/07 00:31:51;;;;;;;6.57;4.97;;;;;;;20.88;65.87;100862.53;5041763;28;20025;-76
2021/09/07 00:34:18;;;;;;;6.82;4.85;;;;;;;20.87;65.78;100872.19;5051877;28;20045;-77
2021/09/07 00:36:43;;;;;;;7.65;5.18;;;;;;;20.86;65.65;100866.88;5047985;28;20025;-77
2021/09/07 00:39:12;;;;;;;6.75;4.78;;;;;;;20.85;65.80;100873.72;5026715;28;20041;-76
2021/09/07 00:41:39;;;;;;;6.60;4.90;;;;;;;20.82;65.70;100868.78;4992629;28;20163;-76
2021/09/07 00:44:15;;;;;;;5.03;4.53;;;;;;;20.81;66.00;100858.66;5021720;28;20025;-76
2021/09/07 00:46:40;;;;;;;6.28;4.70;;;;;;;20.73;66.00;100858.44;5029900;28;20033;-76
2021/09/07 00:49:05;;;;;;;6.95;4.80;;;;;;;20.71;65.95;100863.63;5024301;28;20028;-76
2021/09/07 00:51:31;;;;;;;6.78;5.40;;;;;;;20.65;66.52;100858.59;5055394;28;20044;-76
2021/09/07 00:53:57;;;;;;;7.70;4.65;;;;;;;20.59;66.36;100849.53;5033451;28;20067;-75
2021/09/07 00:56:22;;;;;;;8.02;5.38;;;;;;;20.52;66.68;100849.25;5005472;28;20034;-75
2021/09/07 00:58:48;;;;;;;6.30;4.85;;;;;;;20.46;66.93;100847.84;5024177;28;20029;-75
2021/09/07 01:01:13;;;;;;;6.90;5.30;;;;;;;20.40;66.99;100849.28;5014405;28;20032;-75
2021/09/07 01:03:39;;;;;;;7.68;5.03;;;;;;;20.34;67.83;100845.00;5031481;28;20030;-75
2021/09/07 01:06:04;;;;;;;8.38;5.50;;;;;;;20.26;67.67;100841.97;5048477;28;20040;-75
2021/09/07 01:08:30;;;;;;;6.72;5.25;;;;;;;20.22;67.65;100838.19;5014469;28;20037;-75
2021/09/07 01:10:55;;;;;;;6.13;5.15;;;;;;;20.21;67.63;100833.75;5054412;28;20076;-75
2021/09/07 01:13:21;;;;;;;8.05;5.15;;;;;;;20.17;67.53;100838.44;5044745;28;20040;-75
2021/09/07 01:15:46;;;;;;;8.00;5.20;;;;;;;20.18;67.27;100840.09;5043272;28;20025;-75
2021/09/07 01:18:12;;;;;;;8.15;5.13;;;;;;;20.15;67.62;100828.69;5017209;28;20033;-75
2021/09/07 01:20:37;;;;;;;6.75;5.30;;;;;;;20.07;67.79;100827.63;5011870;28;20631;-75
2021/09/07 01:23:03;;;;;;;8.80;5.07;;;;;;;20.07;67.68;100822.00;5030338;28;20055;-75
2021/09/07 01:25:28;;;;;;;8.30;5.03;;;;;;;20.10;67.40;100818.47;5015783;28;20029;-76
2021/09/07 01:27:53;;;;;;;6.80;4.88;;;;;;;20.08;67.37;100820.81;5001925;28;20037;-76
2021/09/07 01:30:19;;;;;;;4.93;4.43;;;;;;;20.06;67.45;100817.53;5041780;28;20055;-76
2021/09/07 01:32:44;;;;;;;6.70;4.88;;;;;;;20.01;67.42;100809.31;5043185;28;20033;-76
2021/09/07 01:35:10;;;;;;;5.82;5.07;;;;;;;20.00;67.45;100810.47;5039197;28;20110;-75
2021/09/07 01:37:40;;;;;;;6.38;5.20;;;;;;;19.98;67.71;100810.00;5041393;28;20032;-76
2021/09/07 01:40:06;;;;;;;7.15;5.47;;;;;;;19.94;68.04;100812.69;4997031;28;20167;-76
2021/09/07 01:42:32;;;;;;;6.40;5.10;;;;;;;19.92;68.16;100808.56;5041699;28;20048;-76
2021/09/07 01:44:57;;;;;;;6.13;5.35;;;;;;;19.92;68.10;100811.38;5026806;28;20029;-76
2021/09/07 01:47:23;;;;;;;6.40;4.53;;;;;;;19.90;68.09;100800.47;5011769;28;20076;-76
2021/09/07 01:49:48;;;;;;;8.02;5.20;;;;;;;19.87;68.22;100806.81;5009355;28;20036;-76
2021/09/07 01:52:14;;;;;;;6.50;4.93;;;;;;;19.81;68.55;100803.41;5043542;28;20036;-76
2021/09/07 01:54:44;;;;;;;7.40;4.70;;;;;;;19.81;68.22;100802.59;5046681;28;20119;-76
2021/09/07 01:57:09;;;;;;;6.38;4.60;;;;;;;19.80;68.11;100801.75;5055124;28;20037;-76
2021/09/07 01:59:36;;;;;;;6.63;5.13;;;;;;;19.82;68.15;100804.22;5045433;28;20034;-75
2021/09/07 02:02:02;;;;;;;6.22;4.72;;;;;;;19.78;68.20;100804.09;5033845;28;20032;-75
2021/09/07 02:04:28;;;;;;;10.50;5.28;;;;;;;19.73;68.45;100797.88;5051158;28;20551;-75
2021/09/07 02:06:53;;;;;;;11.52;5.38;;;;;;;19.71;68.61;100803.84;5030720;28;20029;-75
2021/09/07 02:09:19;;;;;;;7.53;4.80;;;;;;;19.66;68.25;100806.06;5015105;28;20017;-75
2021/09/07 02:11:45;;;;;;;7.05;4.95;;;;;;;19.68;68.20;100795.28;5023425;28;20037;-75
2021/09/07 02:14:10;;;;;;;5.72;5.07;;;;;;;19.68;68.28;100798.09;5035110;28;20029;-75
2021/09/07 02:16:36;;;;;;;8.43;5.00;;;;;;;19.63;68.51;100796.28;5055906;28;20030;-75
2021/09/07 02:19:01;;;;;;;6.68;5.38;;;;;;;19.58;68.79;100790.84;5045544;28;20099;-75
2021/09/07 02:21:27;;;;;;;7.72;4.65;;;;;;;19.56;68.76;100784.78;5001020;28;20044;-75
2021/09/07 02:23:52;;;;;;;9.75;5.05;;;;;;;19.54;68.96;100787.94;5018657;28;20026;-74
2021/09/07 02:26:18;;;;;;;7.43;5.15;;;;;;;19.50;68.74;100783.31;5035782;28;20036;-74
2021/09/07 02:28:43;;;;;;;6.05;4.75;;;;;;;19.52;68.93;100789.44;4999484;28;20037;-75
2021/09/07 02:31:09;;;;;;;8.60;4.82;;;;;;;19.50;68.42;100797.41;5023192;28;20416;-75
2021/09/07 02:33:34;;;;;;;6.15;4.82;;;;;;;19.49;68.44;100790.97;5016320;28;20079;-75
2021/09/07 02:36:00;;;;;;;10.70;4.80;;;;;;;19.47;68.55;100784.03;5005710;28;20037;-75
2021/09/07 02:38:25;;;;;;;8.70;5.60;;;;;;;19.42;68.82;100788.72;5012580;28;20397;-75
2021/09/07 02:40:51;;;;;;;6.82;5.25;;;;;;;19.42;69.34;100782.28;5034718;28;20098;-75
2021/09/07 02:43:16;;;;;;;6.28;5.15;;;;;;;19.38;69.18;100779.31;5038388;28;20025;-75
2021/09/07 02:45:42;;;;;;;6.97;5.25;;;;;;;19.36;69.45;100778.84;5015787;28;20122;-75
2021/09/07 02:48:07;;;;;;;6.90;5.05;;;;;;;19.31;69.50;100781.88;4996524;28;20041;-75
2021/09/07 02:50:33;;;;;;;6.53;4.78;;;;;;;19.32;69.08;100775.06;5019751;28;20103;-75
2021/09/07 02:52:58;;;;;;;7.18;5.03;;;;;;;19.32;69.00;100785.50;5044873;28;20061;-75
2021/09/07 02:55:24;;;;;;;8.32;5.40;;;;;;;19.26;69.55;100776.47;5036901;28;20029;-75
2021/09/07 02:57:50;;;;;;;8.27;4.97;;;;;;;19.29;68.89;100774.94;5037766;28;20039;-75
2021/09/07 03:00:16;;;;;;;8.20;5.00;;;;;;;19.23;69.63;100773.53;5020195;28;20470;-75
2021/09/07 03:02:41;;;;;;;6.93;5.10;;;;;;;19.23;69.33;100765.06;5025903;28;20048;-74
2021/09/07 03:05:07;;;;;;;6.97;5.30;;;;;;;19.17;69.53;100764.47;5020067;28;20107;-75
2021/09/07 03:07:32;;;;;;;7.60;5.28;;;;;;;19.12;69.77;100761.88;5004112;28;20033;-75
2021/09/07 03:09:58;;;;;;;6.35;4.90;;;;;;;19.13;69.73;100755.88;5027244;28;20398;-74
2021/09/07 03:12:23;;;;;;;8.48;5.00;;;;;;;19.12;69.38;100759.06;4995703;28;20029;-74
2021/09/07 03:14:49;;;;;;;5.78;4.85;;;;;;;19.08;70.11;100747.63;5025272;28;20029;-74
2021/09/07 03:17:14;;;;;;;7.95;4.90;;;;;;;19.09;70.05;100748.47;5043342;28;20034;-75
2021/09/07 03:19:40;;;;;;;5.82;4.55;;;;;;;19.10;69.62;100747.31;5027162;28;20041;-75
2021/09/07 03:22:06;;;;;;;6.45;4.65;;;;;;;19.09;69.58;100742.84;5042422;28;20033;-75
2021/09/07 03:24:31;;;;;;;7.85;4.72;;;;;;;19.06;69.65;100750.00;5017657;28;20112;-75
2021/09/07 03:26:57;;;;;;;9.10;5.07;;;;;;;19.01;69.73;100743.75;5034757;28;20029;-75
2021/09/07 03:29:22;;;;;;;6.95;5.13;;;;;;;19.02;69.74;100742.59;5018046;28;20497;-75
2021/09/07 03:31:48;;;;;;;7.55;5.18;;;;;;;18.98;69.54;100740.47;5016242;28;20431;-75
2021/09/07 03:34:13;;;;;;;5.82;4.88;;;;;;;19.01;69.62;100740.94;5005515;28;20437;-75
2021/09/07 03:36:39;;;;;;;5.88;4.78;;;;;;;18.97;69.70;100735.16;5001871;28;20551;-75
2021/09/07 03:39:05;;;;;;;6.80;5.20;;;;;;;18.94;69.42;100739.53;5026643;28;20033;-75
2021/09/07 03:41:30;;;;;;;7.25;4.93;;;;;;;18.95;69.24;100738.34;5053320;28;20033;-75
2021/09/07 03:43:55;;;;;;;7.07;4.88;;;;;;;18.93;69.45;100746.28;5047339;28;20382;-75
2021/09/07 03:46:21;;;;;;;6.22;4.63;;;;;;;18.90;69.51;100741.34;5039187;28;20033;-75
2021/09/07 03:48:47;;;;;;;6.38;5.07;;;;;;;18.87;69.56;100729.97;5037310;28;20033;-75
2021/09/07 03:51:12;;;;;;;6.82;5.43;;;;;;;18.82;69.69;100733.81;5047462;28;20095;-75
2021/09/07 03:53:38;;;;;;;6.80;4.93;;;;;;;18.84;69.67;100728.69;5051333;28;20500;-75
2021/09/07 03:56:03;;;;;;;7.25;5.15;;;;;;;18.84;69.45;100725.03;5048250;28;20025;-75
2021/09/07 03:58:29;;;;;;;6.90;5.30;;;;;;;18.85;69.64;100721.06;5034802;28;20049;-75
2021/09/07 04:00:54;;;;;;;10.50;5.00;;;;;;;18.81;69.61;100715.31;5028544;28;20032;-75
2021/09/07 04:03:20;;;;;;;7.55;5.30;;;;;;;18.76;69.68;100718.31;5017573;28;20038;-75
2021/09/07 04:05:45;;;;;;;7.63;4.78;;;;;;;18.76;69.53;100712.69;5014526;28;20068;-75
2021/09/07 04:08:11;;;;;;;6.07;5.13;;;;;;;18.76;69.48;100712.69;5049614;28;20044;-75
2021/09/07 04:10:37;;;;;;;8.00;4.80;;;;;;;18.77;69.53;100707.88;5015786;28;20033;-75
2021/09/07 04:13:02;;;;;;;9.23;5.15;;;;;;;18.76;69.26;100707.06;5023989;28;20041;-75
2021/09/07 04:15:28;;;;;;;7.70;4.82;;;;;;;18.75;69.19;100711.06;5034989;28;20444;-75
2021/09/07 04:17:53;;;;;;;7.25;5.10;;;;;;;18.73;69.29;100714.16;5041445;28;20385;-74
2021/09/07 04:20:19;;;;;;;9.23;4.97;;;;;;;18.74;69.27;100707.41;5050731;28;20030;-75
2021/09/07 04:22:44;;;;;;;9.40;5.30;;;;;;;18.72;69.05;100706.06;5042483;28;20065;-75
2021/09/07 04:25:10;;;;;;;8.60;5.78;;;;;;;18.72;69.09;100700.44;5022440;28;20030;-75
2021/09/07 04:27:36;;;;;;;8.48;4.82;;;;;;;18.72;68.87;100697.63;5017203;28;20035;-74
2021/09/07 04:30:04;;;;;;;6.32;5.10;;;;;;;18.71;68.89;100696.00;5015693;28;20033;-75
2021/09/07 04:32:29;;;;;;;6.93;4.68;;;;;;;18.70;68.90;100695.16;5028229;28;20039;-75
2021/09/07 04:34:55;;;;;;;8.20;5.05;;;;;;;18.68;68.77;100699.50;5052490;28;20599;-74
2021/09/07 04:37:20;;;;;;;7.65;5.10;;;;;;;18.67;68.94;100697.84;5034279;28;20452;-75
2021/09/07 04:39:50;;;;;;;6.63;5.43;;;;;;;18.63;68.80;100697.69;5004150;28;20033;-75
2021/09/07 04:42:15;;;;;;;10.52;4.68;;;;;;;18.61;68.82;100699.22;5020653;28;20029;-75
2021/09/07 04:44:41;;;;;;;5.68;5.05;;;;;;;18.60;68.83;100692.75;5010222;28;20036;-75
2021/09/07 04:47:06;;;;;;;7.88;4.90;;;;;;;18.60;68.71;100704.03;5021733;28;20036;-75
2021/09/07 04:49:32;;;;;;;6.43;4.93;;;;;;;18.61;68.67;100702.03;5047001;28;20029;-75
2021/09/07 04:51:57;;;;;;;9.85;5.38;;;;;;;18.55;68.93;100707.03;5052526;28;20029;-75
2021/09/07 04:54:23;;;;;;;9.38;5.10;;;;;;;18.54;68.75;100700.59;5009097;28;20076;-75
2021/09/07 04:56:48;;;;;;;8.05;5.03;;;;;;;18.54;68.54;100699.78;5044013;28;20508;-75
2021/09/07 04:59:13;;;;;;;7.88;5.13;;;;;;;18.49;68.66;100703.59;5062725;28;20025;-75
2021/09/07 05:01:39;;;;;;;6.95;4.93;;;;;;;18.45;68.64;100702.66;5018347;28;20035;-75
2021/09/07 05:04:04;;;;;;;9.85;5.22;;;;;;;18.46;68.79;100703.47;5019740;28;20490;-75
2021/09/07 05:06:30;;;;;;;8.77;5.70;;;;;;;18.43;68.70;100704.97;5020957;28;20057;-75
2021/09/07 05:08:55;;;;;;;7.05;5.32;;;;;;;18.45;68.75;100710.28;5001471;28;20494;-75
2021/09/07 05:11:21;;;;;;;6.07;4.60;;;;;;;18.45;68.75;100702.66;5022275;28;20030;-75
2021/09/07 05:13:46;;;;;;;8.38;5.10;;;;;;;18.43;68.51;100704.97;5028506;28;20033;-75
2021/09/07 05:16:12;;;;;;;9.07;5.45;;;;;;;18.42;68.64;100708.97;5017954;28;20033;-75
2021/09/07 05:18:37;;;;;;;6.75;5.03;;;;;;;18.39;68.47;100715.28;5046852;28;21379;-75
2021/09/07 05:21:03;;;;;;;8.27;5.15;;;;;;;18.38;68.73;100713.63;5013287;28;20032;-76
2021/09/07 05:23:28;;;;;;;8.63;5.35;;;;;;;18.37;68.75;100705.53;5034749;28;20547;-75
2021/09/07 05:25:54;;;;;;;8.75;5.35;;;;;;;18.37;68.74;100702.72;5053313;28;20036;-75
2021/09/07 05:28:19;;;;;;;8.27;5.40;;;;;;;18.36;68.67;100703.88;5018580;28;20025;-75
2021/09/07 05:30:45;;;;;;;8.85;5.18;;;;;;;18.37;68.75;100706.34;5019837;28;20031;-75
2021/09/07 05:33:10;;;;;;;7.97;5.18;;;;;;;18.37;68.94;100700.72;5022345;28;20036;-76
2021/09/07 05:35:36;;;;;;;7.15;4.93;;;;;;;18.37;68.72;100706.34;5017251;28;20056;-75
2021/09/07 05:38:04;;;;;;;6.90;4.78;;;;;;;18.37;68.84;100703.53;5012374;28;20040;-75
2021/09/07 05:40:30;;;;;;;8.55;4.93;;;;;;;18.37;68.80;100705.53;4998928;28;20031;-76
2021/09/07 05:42:55;;;;;;;9.98;5.35;;;;;;;18.35;68.46;100703.06;4997949;28;20477;-75
2021/09/07 05:45:21;;;;;;;7.40;5.00;;;;;;;18.34;68.60;100700.59;5000811;28;20036;-76
2021/09/07 05:47:46;;;;;;;7.30;5.22;;;;;;;18.38;68.71;100710.81;5006012;28;20033;-75
2021/09/07 05:50:14;;;;;;;8.15;5.20;;;;;;;18.37;68.59;100711.97;5013428;28;20013;-75
2021/09/07 05:52:40;;;;;;;7.13;5.32;;;;;;;18.33;68.60;100704.56;5032691;28;20046;-75
2021/09/07 05:55:06;;;;;;;8.05;5.32;;;;;;;18.35;68.68;100705.88;5050101;28;20021;-75
2021/09/07 05:57:32;;;;;;;7.78;5.28;;;;;;;18.37;68.84;100711.97;5041901;28;20476;-75
2021/09/07 05:59:57;;;;;;;7.60;5.22;;;;;;;18.41;68.78;100712.94;5046193;28;20021;-75
2021/09/07 06:02:23;;;;;;;6.35;4.95;;;;;;;18.45;68.43;100711.09;5051347;28;20032;-75
2021/09/07 06:04:48;;;;;;;6.57;4.95;;;;;;;18.48;68.54;100712.41;5041139;28;20371;-75
2021/09/07 06:07:14;;;;;;;9.18;5.18;;;;;;;18.56;68.61;100707.88;5047738;28;20033;-76
2021/09/07 06:09:39;;;;;;;9.25;5.22;;;;;;;18.63;68.45;100705.31;5043271;28;20025;-75
2021/09/07 06:12:05;;;;;;;8.15;5.00;;;;;;;18.70;68.13;100708.41;5047214;28;20033;-73
2021/09/07 06:14:33;;;;;;;9.57;4.95;;;;;;;18.80;68.43;100708.00;5049696;28;20059;-73
2021/09/07 06:17:00;;;;;;;6.97;4.80;;;;;;;18.89;69.41;100705.13;5040878;28;20473;-75
2021/09/07 06:19:25;;;;;;;9.95;5.63;;;;;;;18.99;68.24;100707.50;5028291;28;20022;-74
2021/09/07 06:21:51;;;;;;;11.93;5.30;;;;;;;19.08;68.73;100699.78;5028621;28;20513;-74
2021/09/07 06:24:16;;;;;;;6.85;5.20;;;;;;;19.25;68.06;100695.13;5021438;28;20036;-74
2021/09/07 06:26:42;;;;;;;6.57;5.30;;;;;;;19.38;69.00;100702.44;5018810;28;20064;-73
2021/09/07 06:29:07;;;;;;;8.07;5.72;;;;;;;19.49;68.00;100702.81;5031471;28;20527;-74
2021/09/07 06:31:33;;;;;;;8.02;5.65;;;;;;;19.61;68.29;100702.81;5037506;28;20033;-73
2021/09/07 06:33:58;;;;;;;8.35;6.10;;;;;;;19.73;68.16;100702.06;5016977;28;20025;-74
2021/09/07 06:36:24;;;;;;;10.57;5.80;;;;;;;19.83;67.27;100708.03;5005713;28;20025;-73
2021/09/07 06:38:49;;;;;;;7.47;5.00;;;;;;;19.95;66.89;100710.06;5038379;28;20028;-73
2021/09/07 06:41:15;;;;;;;7.90;5.45;;;;;;;20.08;66.90;100705.22;5035823;28;20044;-74
2021/09/07 06:43:41;;;;;;;10.95;5.22;;;;;;;20.18;65.57;100707.56;5038271;28;20036;-73
2021/09/07 06:46:07;;;;;;;8.07;5.03;;;;;;;20.31;65.43;100706.38;5019756;28;20656;-75
2021/09/07 06:48:32;;;;;;;8.27;5.00;;;;;;;20.43;64.42;100711.16;5022249;28;20029;-75
2021/09/07 06:50:58;;;;;;;7.65;5.03;;;;;;;20.57;64.40;100709.97;5025597;28;20100;-74
2021/09/07 06:53:23;;;;;;;6.28;4.97;;;;;;;20.69;64.29;100705.09;5020288;28;20025;-74
2021/09/07 06:55:49;;;;;;;10.57;5.30;;;;;;;20.85;63.69;100705.19;5018577;28;20061;-75
2021/09/07 06:58:14;;;;;;;6.28;4.70;;;;;;;20.96;63.42;100705.50;5035893;28;20036;-75
2021/09/07 07:00:40;;;;;;;7.03;5.32;;;;;;;21.05;62.58;100703.31;5004214;28;20037;-75
2021/09/07 07:03:05;;;;;;;7.63;4.57;;;;;;;21.16;62.71;100698.78;5004134;28;20036;-75
2021/09/07 07:05:31;;;;;;;8.55;5.28;;;;;;;21.29;61.91;100696.72;5003007;28;20064;-76
2021/09/07 07:07:56;;;;;;;7.95;4.90;;;;;;;21.39;61.00;100696.19;5012170;28;20041;-75
2021/09/07 07:10:22;;;;;;;8.05;4.70;;;;;;;21.53;61.06;100690.09;5009099;28;20120;-75
2021/09/07 07:12:47;;;;;;;9.20;5.05;;;;;;;21.65;60.08;100692.03;5034536;28;20106;-75
2021/09/07 07:15:13;;;;;;;6.72;5.03;;;;;;;21.75;60.33;100683.00;5003044;28;20380;-75
2021/09/07 07:17:38;;;;;;;6.57;4.35;;;;;;;21.84;59.95;100682.78;5028290;28;20089;-75
2021/09/07 07:20:04;;;;;;;9.48;4.50;;;;;;;21.97;59.78;100687.16;5018493;28;20032;-75
2021/09/07 07:22:29;;;;;;;7.90;4.78;;;;;;;22.06;58.82;100681.31;5042817;28;20033;-75
2021/09/07 07:24:55;;;;;;;14.88;5.50;;;;;;;22.18;59.30;100681.22;5058280;28;20032;-74
2021/09/07 07:27:20;;;;;;;9.52;4.63;;;;;;;22.26;58.97;100677.38;5057084;28;20044;-75
2021/09/07 07:29:46;;;;;;;8.70;5.43;;;;;;;22.35;58.68;100668.69;5004618;28;20036;-75
2021/09/07 07:32:11;;;;;;;10.40;5.18;;;;;;;22.45;58.21;100668.06;5053049;28;20036;-75
2021/09/07 07:34:37;;;;;;;8.40;4.60;;;;;;;22.62;57.98;100668.81;5020065;28;20047;-75
2021/09/07 07:37:05;;;;;;;9.18;5.15;;;;;;;22.73;58.08;100662.22;5019592;28;20029;-75
2021/09/07 07:39:33;;;;;;;8.27;4.30;;;;;;;22.81;57.56;100660.31;5028170;28;20114;-75
2021/09/07 07:41:59;;;;;;;6.57;4.53;;;;;;;22.92;57.92;100663.38;5023249;28;20025;-75
2021/09/07 07:44:24;;;;;;;6.70;4.75;;;;;;;23.06;57.93;100645.88;5010793;28;20033;-75
2021/09/07 07:46:50;;;;;;;8.48;4.75;;;;;;;23.18;57.94;100659.88;5017880;28;20036;-75
2021/09/07 07:49:16;;;;;;;7.68;4.65;;;;;;;23.31;57.10;100663.34;5037217;28;20535;-75
2021/09/07 07:51:41;;;;;;;5.85;4.53;;;;;;;23.40;57.44;100652.56;5014962;28;20390;-75
2021/09/07 07:54:10;;;;;;;8.80;4.50;;;;;;;23.51;56.95;100655.59;5012730;28;20025;-75
2021/09/07 07:56:36;;;;;;;5.40;4.38;;;;;;;23.62;56.64;100657.41;5017771;28;20029;-75
2021/09/07 07:59:02;;;;;;;7.15;4.63;;;;;;;23.67;56.22;100644.09;5028128;28;20539;-75
2021/09/07 08:01:28;;;;;;;7.88;4.70;;;;;;;23.76;56.04;100653.19;5005885;28;20033;-75
2021/09/07 08:03:53;;;;;;;7.10;4.68;;;;;;;23.97;56.14;100659.22;5008244;28;20030;-75
2021/09/07 08:06:19;;;;;;;9.02;4.60;;;;;;;23.94;55.20;100645.78;5029579;28;20420;-72
2021/09/07 08:08:44;;;;;;;10.35;4.45;;;;;;;24.04;55.89;100647.13;5008521;28;20032;-72
2021/09/07 08:11:10;;;;;;;5.82;4.03;;;;;;;24.18;55.57;100649.38;5009882;28;20112;-72
2021/09/07 08:13:35;;;;;;;5.00;4.40;;;;;;;24.30;55.81;100647.13;5014846;28;20056;-72
2021/09/07 08:16:01;;;;;;;6.18;4.15;;;;;;;24.38;56.37;100645.22;5010577;28;20524;-72
2021/09/07 08:18:26;;;;;;;7.60;4.70;;;;;;;24.50;56.15;100641.31;5026566;28;20032;-72
2021/09/07 08:20:52;;;;;;;6.90;4.30;;;;;;;24.62;55.39;100646.75;5022623;28;20033;-72
2021/09/07 08:23:17;;;;;;;8.05;4.35;;;;;;;24.75;55.35;100633.94;5000335;28;20025;-72
2021/09/07 08:25:43;;;;;;;9.95;4.47;;;;;;;24.91;54.15;100635.75;5014498;28;20136;-72
2021/09/07 08:28:08;;;;;;;7.18;4.50;;;;;;;24.93;54.35;100638.97;4991716;28;20032;-72
2021/09/07 08:30:34;;;;;;;6.10;4.25;;;;;;;24.97;53.96;100629.31;5004576;28;20025;-72
2021/09/07 08:33:00;;;;;;;8.45;4.20;;;;;;;25.17;53.58;100634.81;5032144;28;20048;-72
2021/09/07 08:35:25;;;;;;;8.77;4.22;;;;;;;25.22;52.64;100633.66;5011112;28;20033;-72
2021/09/07 08:37:51;;;;;;;7.45;3.97;;;;;;;25.38;52.72;100628.50;4990481;28;20062;-72
2021/09/07 08:40:16;;;;;;;7.38;4.53;;;;;;;25.48;52.94;100636.31;5020441;28;20029;-72
2021/09/07 08:42:42;;;;;;;6.63;4.05;;;;;;;25.51;52.39;100641.22;5026685;28;20038;-72
2021/09/07 08:45:11;;;;;;;7.43;4.63;;;;;;;25.62;52.58;100633.59;5023073;28;20022;-72
2021/09/07 08:47:36;;;;;;;8.00;4.72;;;;;;;25.69;52.11;100640.56;5018768;28;20096;-72
2021/09/07 08:50:02;;;;;;;9.18;4.50;;;;;;;25.73;51.82;100638.56;5030060;28;20043;-72
2021/09/07 08:52:28;;;;;;;7.00;4.35;;;;;;;25.85;51.46;100643.94;5018541;28;20072;-72
2021/09/07 08:54:53;;;;;;;9.07;4.20;;;;;;;25.92;51.03;100641.16;5010511;28;20040;-72
2021/09/07 08:57:19;;;;;;;7.35;4.53;;;;;;;26.00;51.10;100637.16;5013501;28;20052;-72
2021/09/07 08:59:46;;;;;;;7.47;4.22;;;;;;;26.07;52.17;100637.19;5036156;28;20025;-72
2021/09/07 09:02:12;;;;;;;5.13;4.10;;;;;;;26.14;51.38;100644.16;5031038;28;20496;-72
2021/09/07 09:04:38;;;;;;;8.70;4.70;;;;;;;26.21;50.87;100627.09;5020910;28;20044;-72
2021/09/07 09:07:04;;;;;;;9.90;4.35;;;;;;;26.29;50.74;100632.44;5007823;28;20070;-72
2021/09/07 09:09:39;;;;;;;6.97;4.57;;;;;;;26.39;51.12;100636.56;5031999;28;20033;-72
2021/09/07 09:12:05;;;;;;;9.63;4.50;;;;;;;26.43;50.16;100640.22;5027401;28;20025;-72
2021/09/07 09:14:35;;;;;;;7.90;4.38;;;;;;;26.51;49.90;100635.41;4998604;28;20049;-72
2021/09/07 09:17:18;;;;;;;9.95;4.32;;;;;;;26.57;50.04;100630.97;5013359;28;20025;-72
2021/09/07 09:19:59;;;;;;;4.70;4.03;;;;;;;26.66;49.94;100627.72;5039850;28;20033;-72
2021/09/07 09:22:44;;;;;;;8.35;4.47;;;;;;;26.75;50.03;100628.19;5033207;28;20119;-72
2021/09/07 09:25:22;;;;;;;6.50;4.18;;;;;;;26.82;50.11;100618.84;5052583;28;20060;-72
2021/09/07 09:27:56;;;;;;;6.88;4.00;;;;;;;26.92;49.51;100624.56;5043284;28;20034;-72
2021/09/07 09:30:28;;;;;;;6.10;4.00;;;;;;;27.02;49.31;100625.00;5035971;28;20102;-72
2021/09/07 09:32:54;;;;;;;7.60;4.10;;;;;;;27.09;48.97;100622.16;5054502;28;20118;-73
2021/09/07 09:35:19;;;;;;;8.40;4.55;;;;;;;27.17;48.50;100621.81;5016393;28;20108;-72
2021/09/07 09:38:01;;;;;;;6.32;4.20;;;;;;;27.35;47.96;100610.41;5014309;28;20036;-72
2021/09/07 09:40:27;;;;;;;9.93;4.22;;;;;;;27.51;47.47;100612.84;5020296;28;20040;-72
2021/09/07 09:42:53;;;;;;;5.18;3.90;;;;;;;27.55;48.02;100610.84;5004585;28;20025;-72
2021/09/07 09:45:28;;;;;;;9.13;3.80;;;;;;;27.76;46.90;100604.28;5038266;28;20078;-72
2021/09/07 09:47:56;;;;;;;7.72;4.35;;;;;;;27.83;46.83;100603.47;5038688;28;20025;-72
2021/09/07 09:50:22;;;;;;;9.50;4.05;;;;;;;27.89;46.60;100606.72;5039295;28;20032;-72
2021/09/07 09:52:48;;;;;;;9.57;4.03;;;;;;;27.96;46.85;100607.53;5021548;28;20115;-72
2021/09/07 09:55:14;;;;;;;6.18;4.07;;;;;;;28.01;47.08;100606.31;5021262;28;20030;-72
2021/09/07 09:57:40;;;;;;;7.30;4.15;;;;;;;28.02;46.10;100602.22;5027905;28;20113;-72
2021/09/07 10:00:16;;;;;;;7.18;3.90;;;;;;;28.18;45.45;100599.72;5002965;28;20033;-72
2021/09/07 10:02:42;;;;;;;6.10;3.78;;;;;;;28.24;45.46;100606.63;5033783;28;20033;-72
2021/09/07 10:05:12;;;;;;;6.95;4.20;;;;;;;28.29;45.15;100589.09;5016888;28;20049;-72
2021/09/07 10:07:38;;;;;;;10.65;4.05;;;;;;;28.40;45.34;100591.09;5048743;28;20037;-72
2021/09/07 10:10:04;;;;;;;8.10;3.80;;;;;;;28.48;44.88;100587.81;5020419;28;20029;-72
2021/09/07 10:12:36;;;;;;;9.45;4.05;;;;;;;28.63;44.54;100582.03;5020018;28;20033;-72
2021/09/07 10:15:11;;;;;;;8.10;3.90;;;;;;;28.50;44.20;100581.66;5036883;28;20099;-72
2021/09/07 10:17:54;;;;;;;11.60;4.40;;;;;;;28.59;44.07;100584.91;5034538;28;20025;-73
2021/09/07 10:20:45;;;;;;;5.55;3.70;;;;;;;28.47;43.55;100577.63;5008634;28;20017;-72
2021/09/07 10:23:29;;;;;;;7.95;3.70;;;;;;;28.62;44.00;100586.94;5030949;28;20032;-72
2021/09/07 10:25:59;;;;;;;10.32;4.70;;;;;;;28.57;42.67;100572.28;5026695;28;20037;-72
2021/09/07 10:28:39;;;;;;;7.82;3.53;;;;;;;28.66;43.54;100578.34;5011400;28;20100;-72
2021/09/07 10:31:07;;;;;;;10.50;4.28;;;;;;;28.68;43.34;100584.44;5001653;28;20060;-72
2021/09/07 10:33:34;;;;;;;7.15;3.72;;;;;;;28.66;43.19;100570.56;5005294;28;20029;-72
2021/09/07 10:36:20;;;;;;;5.43;3.72;;;;;;;28.78;44.08;100582.75;5020592;28;20036;-72
2021/09/07 10:38:48;;;;;;;4.97;3.70;;;;;;;28.92;42.55;100565.53;5037691;28;20029;-72
2021/09/07 10:41:29;;;;;;;7.88;3.58;;;;;;;28.99;42.99;100571.19;5011549;28;20049;-72
2021/09/07 10:44:23;;;;;;;8.98;3.60;;;;;;;28.92;41.76;100565.53;5035246;28;20029;-72
2021/09/07 10:46:55;;;;;;;8.18;3.40;;;;;;;28.93;42.07;100570.00;5046032;28;20061;-72
2021/09/07 10:49:25;;;;;;;8.88;3.75;;;;;;;28.88;42.34;100559.00;5036677;28;20033;-72
2021/09/07 10:52:14;;;;;;;8.02;3.58;;;;;;;28.82;42.29;100569.25;5017817;28;20033;-72
2021/09/07 10:54:50;;;;;;;7.53;3.83;;;;;;;28.77;41.62;100552.56;5042221;28;20088;-74
2021/09/07 10:57:34;;;;;;;7.35;3.80;;;;;;;28.80;42.06;100554.56;5055123;28;20366;-74
2021/09/07 11:00:01;;;;;;;7.05;3.47;;;;;;;28.72;42.15;100554.63;5054436;28;20489;-74
2021/09/07 11:02:37;;;;;;;5.45;3.40;;;;;;;28.79;42.13;100562.34;5020696;28;20083;-74
2021/09/07 11:05:04;;;;;;;9.25;3.92;;;;;;;28.78;42.07;100551.31;5056443;28;20075;-75
2021/09/07 11:07:41;;;;;;;6.35;3.63;;;;;;;28.76;41.68;100548.88;5029468;28;20029;-75
2021/09/07 11:10:18;;;;;;;5.40;3.33;;;;;;;28.71;41.65;100544.41;5026442;28;20112;-74
2021/09/07 11:13:02;;;;;;;6.55;3.70;;;;;;;28.78;41.88;100539.88;5056725;28;20036;-74
2021/09/07 11:15:31;;;;;;;6.70;3.30;;;;;;;28.80;42.28;100534.56;5053274;28;20048;-75
2021/09/07 11:18:02;;;;;;;6.70;3.45;;;;;;;28.79;41.89;100542.34;5045661;28;20065;-75
2021/09/07 11:20:34;;;;;;;7.15;3.50;;;;;;;28.87;41.10;100535.34;5052972;28;20052;-75
2021/09/07 11:23:16;;;;;;;5.90;3.42;;;;;;;28.91;40.77;100533.25;5045049;28;20029;-75